sensor_id;sensor_type;location;lat;lon;timestamp;P1;durP1;ratioP1;P2;durP2;ratioP2
18210;SDS011;9231;48.852;9.882;2022-12-07T00:00:34;7.73;;;6.13;;
18210;SDS011;9231;48.852;9.882;2022-12-07T00:03:00;6.87;;;5.53;;
18210;SDS011;9231;48.852;9.882;2022-12-07T00:05:27;10.37;;;6.10;;
18210;SDS011;9231;48.852;9.882;2022-12-07T00:07:54;8.03;;;6.37;;
18210;SDS011;9231;48.852;9.882;2022-12-07T00:10:21;8.67;;;6.73;;
18210;SDS011;9231;48.852;9.882;2022-12-07T00:12:47;7.73;;;6.63;;
18210;SDS011;9231;48.852;9.882;2022-12-07T00:15:15;9.03;;;6.53;;
18210;SDS011;9231;48.852;9.882;2022-12-07T00:17:41;8.60;;;5.97;;
18210;SDS011;9231;48.852;9.882;2022-12-07T00:20:08;9.30;;;6.57;;
18210;SDS011;9231;48.852;9.882;2022-12-07T00:22:34;10.03;;;6.33;;
18210;SDS011;9231;48.852;9.882;2022-12-07T00:25:02;8.47;;;6.23;;
18210;SDS011;9231;48.852;9.882;2022-12-07T00:27:29;7.80;;;5.63;;
18210;SDS011;9231;48.852;9.882;2022-12-07T00:29:55;7.67;;;6.27;;
18210;SDS011;9231;48.852;9.882;2022-12-07T00:32:22;9.60;;;6.07;;
18210;SDS011;9231;48.852;9.882;2022-12-07T00:34:48;7.13;;;5.80;;
18210;SDS011;9231;48.852;9.882;2022-12-07T00:37:15;7.23;;;6.37;;
18210;SDS011;9231;48.852;9.882;2022-12-07T00:39:41;8.00;;;6.33;;
18210;SDS011;9231;48.852;9.882;2022-12-07T00:42:09;10.23;;;6.70;;
18210;SDS011;9231;48.852;9.882;2022-12-07T00:44:35;9.47;;;5.97;;
18210;SDS011;9231;48.852;9.882;2022-12-07T00:47:02;8.23;;;6.57;;
18210;SDS011;9231;48.852;9.882;2022-12-07T00:49:28;7.87;;;5.73;;
18210;SDS011;9231;48.852;9.882;2022-12-07T00:51:55;8.17;;;6.00;;
18210;SDS011;9231;48.852;9.882;2022-12-07T00:54:21;11.53;;;6.83;;
18210;SDS011;9231;48.852;9.882;2022-12-07T00:56:47;10.67;;;6.80;;
18210;SDS011;9231;48.852;9.882;2022-12-07T00:59:15;8.27;;;6.03;;
18210;SDS011;9231;48.852;9.882;2022-12-07T01:01:42;7.90;;;6.60;;
18210;SDS011;9231;48.852;9.882;2022-12-07T01:04:08;8.13;;;6.13;;
18210;SDS011;9231;48.852;9.882;2022-12-07T01:06:35;9.47;;;6.17;;
18210;SDS011;9231;48.852;9.882;2022-12-07T01:09:01;8.53;;;5.97;;
18210;SDS011;9231;48.852;9.882;2022-12-07T01:11:29;8.63;;;6.83;;
18210;SDS011;9231;48.852;9.882;2022-12-07T01:13:56;8.77;;;6.27;;
18210;SDS011;9231;48.852;9.882;2022-12-07T01:16:25;8.80;;;6.20;;
18210;SDS011;9231;48.852;9.882;2022-12-07T01:18:52;7.23;;;6.37;;
18210;SDS011;9231;48.852;9.882;2022-12-07T01:21:19;9.00;;;6.97;;
18210;SDS011;9231;48.852;9.882;2022-12-07T01:23:48;9.93;;;6.63;;
18210;SDS011;9231;48.852;9.882;2022-12-07T01:26:16;9.47;;;6.63;;
18210;SDS011;9231;48.852;9.882;2022-12-07T01:28:43;8.47;;;6.47;;
18210;SDS011;9231;48.852;9.882;2022-12-07T01:31:10;10.30;;;6.97;;
18210;SDS011;9231;48.852;9.882;2022-12-07T01:33:38;10.73;;;6.73;;
18210;SDS011;9231;48.852;9.882;2022-12-07T01:36:06;8.47;;;6.77;;
18210;SDS011;9231;48.852;9.882;2022-12-07T01:38:33;8.63;;;6.60;;
18210;SDS011;9231;48.852;9.882;2022-12-07T01:41:00;9.90;;;7.13;;
18210;SDS011;9231;48.852;9.882;2022-12-07T01:43:27;9.30;;;6.40;;
18210;SDS011;9231;48.852;9.882;2022-12-07T01:45:54;7.37;;;6.30;;
18210;SDS011;9231;48.852;9.882;2022-12-07T01:48:22;9.10;;;7.03;;
18210;SDS011;9231;48.852;9.882;2022-12-07T01:50:52;10.77;;;7.10;;
18210;SDS011;9231;48.852;9.882;2022-12-07T01:53:19;9.70;;;7.17;;
18210;SDS011;9231;48.852;9.882;2022-12-07T01:55:47;9.27;;;6.77;;
18210;SDS011;9231;48.852;9.882;2022-12-07T01:58:15;9.27;;;7.63;;
18210;SDS011;9231;48.852;9.882;2022-12-07T02:00:42;8.80;;;6.77;;
18210;SDS011;9231;48.852;9.882;2022-12-07T02:03:09;11.53;;;7.90;;
18210;SDS011;9231;48.852;9.882;2022-12-07T02:05:37;9.30;;;6.87;;
18210;SDS011;9231;48.852;9.882;2022-12-07T02:08:06;10.27;;;7.37;;
18210;SDS011;9231;48.852;9.882;2022-12-07T02:10:33;9.87;;;7.47;;
18210;SDS011;9231;48.852;9.882;2022-12-07T02:13:00;9.87;;;7.13;;
18210;SDS011;9231;48.852;9.882;2022-12-07T02:15:29;10.90;;;7.40;;
18210;SDS011;9231;48.852;9.882;2022-12-07T02:17:59;9.27;;;7.43;;
18210;SDS011;9231;48.852;9.882;2022-12-07T02:20:28;9.20;;;7.10;;
18210;SDS011;9231;48.852;9.882;2022-12-07T02:23:02;11.10;;;7.60;;
18210;SDS011;9231;48.852;9.882;2022-12-07T02:25:41;10.90;;;7.17;;
18210;SDS011;9231;48.852;9.882;2022-12-07T02:28:12;9.97;;;7.20;;
18210;SDS011;9231;48.852;9.882;2022-12-07T02:30:43;10.03;;;6.93;;
18210;SDS011;9231;48.852;9.882;2022-12-07T02:33:11;8.83;;;6.90;;
18210;SDS011;9231;48.852;9.882;2022-12-07T02:35:41;9.83;;;6.90;;
18210;SDS011;9231;48.852;9.882;2022-12-07T02:38:11;9.53;;;7.07;;
18210;SDS011;9231;48.852;9.882;2022-12-07T02:40:41;9.07;;;7.20;;
18210;SDS011;9231;48.852;9.882;2022-12-07T02:43:10;11.07;;;7.57;;
18210;SDS011;9231;48.852;9.882;2022-12-07T02:45:38;10.70;;;8.50;;
18210;SDS011;9231;48.852;9.882;2022-12-07T02:48:07;12.93;;;7.90;;
18210;SDS011;9231;48.852;9.882;2022-12-07T02:50:35;9.93;;;7.57;;
18210;SDS011;9231;48.852;9.882;2022-12-07T02:53:01;10.80;;;8.17;;
18210;SDS011;9231;48.852;9.882;2022-12-07T02:55:28;11.80;;;8.23;;
18210;SDS011;9231;48.852;9.882;2022-12-07T02:58:08;11.40;;;8.00;;
18210;SDS011;9231;48.852;9.882;2022-12-07T03:00:42;9.73;;;7.53;;
18210;SDS011;9231;48.852;9.882;2022-12-07T03:03:12;10.47;;;7.43;;
18210;SDS011;9231;48.852;9.882;2022-12-07T03:05:43;10.97;;;7.90;;
18210;SDS011;9231;48.852;9.882;2022-12-07T03:08:14;10.10;;;7.57;;
18210;SDS011;9231;48.852;9.882;2022-12-07T03:10:46;10.37;;;7.57;;
18210;SDS011;9231;48.852;9.882;2022-12-07T03:13:17;9.50;;;7.57;;
18210;SDS011;9231;48.852;9.882;2022-12-07T03:15:49;10.83;;;8.03;;
18210;SDS011;9231;48.852;9.882;2022-12-07T03:18:21;12.13;;;8.40;;
18210;SDS011;9231;48.852;9.882;2022-12-07T03:20:49;14.37;;;9.90;;
18210;SDS011;9231;48.852;9.882;2022-12-07T03:23:17;12.70;;;8.60;;
18210;SDS011;9231;48.852;9.882;2022-12-07T03:25:45;13.67;;;8.37;;
18210;SDS011;9231;48.852;9.882;2022-12-07T03:28:13;12.03;;;8.27;;
18210;SDS011;9231;48.852;9.882;2022-12-07T03:30:42;11.37;;;8.47;;
18210;SDS011;9231;48.852;9.882;2022-12-07T03:33:11;12.80;;;8.00;;
18210;SDS011;9231;48.852;9.882;2022-12-07T03:35:42;11.57;;;8.23;;
18210;SDS011;9231;48.852;9.882;2022-12-07T03:38:13;11.93;;;7.87;;
18210;SDS011;9231;48.852;9.882;2022-12-07T03:40:41;11.43;;;7.83;;
18210;SDS011;9231;48.852;9.882;2022-12-07T03:43:10;11.23;;;7.57;;
18210;SDS011;9231;48.852;9.882;2022-12-07T03:45:37;12.07;;;8.87;;
18210;SDS011;9231;48.852;9.882;2022-12-07T03:48:06;10.20;;;7.67;;
18210;SDS011;9231;48.852;9.882;2022-12-07T03:50:37;11.30;;;8.07;;
18210;SDS011;9231;48.852;9.882;2022-12-07T03:53:08;12.83;;;8.93;;
18210;SDS011;9231;48.852;9.882;2022-12-07T03:55:35;12.10;;;8.47;;
18210;SDS011;9231;48.852;9.882;2022-12-07T03:58:05;13.13;;;8.37;;
18210;SDS011;9231;48.852;9.882;2022-12-07T04:00:32;13.33;;;8.93;;
18210;SDS011;9231;48.852;9.882;2022-12-07T04:02:58;14.43;;;9.80;;
18210;SDS011;9231;48.852;9.882;2022-12-07T04:05:25;17.60;;;9.20;;
18210;SDS011;9231;48.852;9.882;2022-12-07T04:07:52;14.47;;;9.07;;
18210;SDS011;9231;48.852;9.882;2022-12-07T04:10:19;14.93;;;10.07;;
18210;SDS011;9231;48.852;9.882;2022-12-07T04:12:46;13.03;;;9.90;;
18210;SDS011;9231;48.852;9.882;2022-12-07T04:15:12;14.57;;;9.30;;
18210;SDS011;9231;48.852;9.882;2022-12-07T04:17:39;13.27;;;9.47;;
18210;SDS011;9231;48.852;9.882;2022-12-07T04:20:05;13.50;;;9.97;;
18210;SDS011;9231;48.852;9.882;2022-12-07T04:22:32;14.30;;;9.90;;
18210;SDS011;9231;48.852;9.882;2022-12-07T04:24:59;14.10;;;10.00;;
18210;SDS011;9231;48.852;9.882;2022-12-07T04:30:02;14.57;;;9.83;;
18210;SDS011;9231;48.852;9.882;2022-12-07T04:32:29;13.87;;;10.40;;
18210;SDS011;9231;48.852;9.882;2022-12-07T04:34:55;16.27;;;11.53;;
18210;SDS011;9231;48.852;9.882;2022-12-07T04:37:22;16.00;;;11.00;;
18210;SDS011;9231;48.852;9.882;2022-12-07T04:39:51;15.70;;;10.67;;
18210;SDS011;9231;48.852;9.882;2022-12-07T04:42:17;14.83;;;10.37;;
18210;SDS011;9231;48.852;9.882;2022-12-07T04:44:44;14.33;;;10.17;;
18210;SDS011;9231;48.852;9.882;2022-12-07T04:47:12;14.80;;;10.23;;
18210;SDS011;9231;48.852;9.882;2022-12-07T04:49:38;16.73;;;10.50;;
18210;SDS011;9231;48.852;9.882;2022-12-07T04:52:06;15.87;;;10.60;;
18210;SDS011;9231;48.852;9.882;2022-12-07T04:54:33;14.17;;;10.03;;
18210;SDS011;9231;48.852;9.882;2022-12-07T04:56:59;13.80;;;10.23;;
18210;SDS011;9231;48.852;9.882;2022-12-07T04:59:26;15.63;;;10.43;;
18210;SDS011;9231;48.852;9.882;2022-12-07T05:01:52;15.10;;;9.73;;
18210;SDS011;9231;48.852;9.882;2022-12-07T05:04:20;15.07;;;9.50;;
18210;SDS011;9231;48.852;9.882;2022-12-07T05:06:46;14.97;;;9.93;;
18210;SDS011;9231;48.852;9.882;2022-12-07T05:09:13;15.73;;;10.40;;
18210;SDS011;9231;48.852;9.882;2022-12-07T05:11:39;14.57;;;10.47;;
18210;SDS011;9231;48.852;9.882;2022-12-07T05:14:07;18.40;;;9.67;;
18210;SDS011;9231;48.852;9.882;2022-12-07T05:16:34;16.07;;;10.60;;
18210;SDS011;9231;48.852;9.882;2022-12-07T05:19:00;15.73;;;11.07;;
18210;SDS011;9231;48.852;9.882;2022-12-07T05:21:28;15.90;;;10.93;;
18210;SDS011;9231;48.852;9.882;2022-12-07T05:23:55;15.07;;;9.97;;
18210;SDS011;9231;48.852;9.882;2022-12-07T05:26:21;13.90;;;8.13;;
18210;SDS011;9231;48.852;9.882;2022-12-07T05:28:49;13.73;;;9.23;;
18210;SDS011;9231;48.852;9.882;2022-12-07T05:31:16;13.37;;;7.77;;
18210;SDS011;9231;48.852;9.882;2022-12-07T05:33:42;17.80;;;10.87;;
18210;SDS011;9231;48.852;9.882;2022-12-07T05:36:09;16.47;;;10.13;;
18210;SDS011;9231;48.852;9.882;2022-12-07T05:38:37;14.33;;;9.23;;
18210;SDS011;9231;48.852;9.882;2022-12-07T05:41:13;16.80;;;11.13;;
18210;SDS011;9231;48.852;9.882;2022-12-07T05:43:54;16.40;;;10.37;;
18210;SDS011;9231;48.852;9.882;2022-12-07T05:46:20;16.40;;;10.70;;
18210;SDS011;9231;48.852;9.882;2022-12-07T05:48:46;14.07;;;8.70;;
18210;SDS011;9231;48.852;9.882;2022-12-07T05:51:13;14.57;;;9.70;;
18210;SDS011;9231;48.852;9.882;2022-12-07T05:53:41;13.37;;;7.47;;
18210;SDS011;9231;48.852;9.882;2022-12-07T05:56:07;14.67;;;10.37;;
18210;SDS011;9231;48.852;9.882;2022-12-07T05:58:33;15.90;;;9.47;;
18210;SDS011;9231;48.852;9.882;2022-12-07T06:01:17;10.07;;;6.23;;
18210;SDS011;9231;48.852;9.882;2022-12-07T06:03:44;6.77;;;4.83;;
18210;SDS011;9231;48.852;9.882;2022-12-07T06:06:10;12.70;;;7.43;;
18210;SDS011;9231;48.852;9.882;2022-12-07T06:08:37;13.67;;;8.87;;
18210;SDS011;9231;48.852;9.882;2022-12-07T06:11:05;18.23;;;9.57;;
18210;SDS011;9231;48.852;9.882;2022-12-07T06:13:49;17.20;;;8.80;;
18210;SDS011;9231;48.852;9.882;2022-12-07T06:16:15;11.57;;;8.43;;
18210;SDS011;9231;48.852;9.882;2022-12-07T06:18:42;15.00;;;10.13;;
18210;SDS011;9231;48.852;9.882;2022-12-07T06:21:08;15.87;;;8.87;;
18210;SDS011;9231;48.852;9.882;2022-12-07T06:23:34;11.70;;;7.07;;
18210;SDS011;9231;48.852;9.882;2022-12-07T06:26:01;13.80;;;10.10;;
18210;SDS011;9231;48.852;9.882;2022-12-07T06:28:29;15.87;;;9.53;;
18210;SDS011;9231;48.852;9.882;2022-12-07T06:30:59;15.13;;;8.80;;
18210;SDS011;9231;48.852;9.882;2022-12-07T06:33:25;17.53;;;9.47;;
18210;SDS011;9231;48.852;9.882;2022-12-07T06:35:54;15.93;;;10.00;;
18210;SDS011;9231;48.852;9.882;2022-12-07T06:38:21;15.50;;;10.37;;
18210;SDS011;9231;48.852;9.882;2022-12-07T06:40:47;14.00;;;9.30;;
18210;SDS011;9231;48.852;9.882;2022-12-07T06:43:14;15.03;;;10.37;;
18210;SDS011;9231;48.852;9.882;2022-12-07T06:45:42;16.23;;;10.07;;
18210;SDS011;9231;48.852;9.882;2022-12-07T06:48:08;15.37;;;9.87;;
18210;SDS011;9231;48.852;9.882;2022-12-07T06:50:35;16.03;;;9.63;;
18210;SDS011;9231;48.852;9.882;2022-12-07T06:53:01;16.57;;;9.60;;
18210;SDS011;9231;48.852;9.882;2022-12-07T06:55:28;17.47;;;10.73;;
18210;SDS011;9231;48.852;9.882;2022-12-07T06:57:54;15.03;;;10.10;;
18210;SDS011;9231;48.852;9.882;2022-12-07T07:00:21;15.13;;;10.33;;
18210;SDS011;9231;48.852;9.882;2022-12-07T07:02:49;16.63;;;10.17;;
18210;SDS011;9231;48.852;9.882;2022-12-07T07:05:15;14.63;;;10.10;;
18210;SDS011;9231;48.852;9.882;2022-12-07T07:07:41;14.87;;;9.50;;
18210;SDS011;9231;48.852;9.882;2022-12-07T07:10:08;16.70;;;11.17;;
18210;SDS011;9231;48.852;9.882;2022-12-07T07:12:38;18.07;;;10.93;;
18210;SDS011;9231;48.852;9.882;2022-12-07T07:15:04;17.07;;;11.23;;
18210;SDS011;9231;48.852;9.882;2022-12-07T07:17:31;13.77;;;9.93;;
18210;SDS011;9231;48.852;9.882;2022-12-07T07:19:59;15.43;;;9.87;;
18210;SDS011;9231;48.852;9.882;2022-12-07T07:22:27;14.37;;;9.63;;
18210;SDS011;9231;48.852;9.882;2022-12-07T07:24:53;18.63;;;11.03;;
18210;SDS011;9231;48.852;9.882;2022-12-07T07:27:20;19.17;;;10.27;;
18210;SDS011;9231;48.852;9.882;2022-12-07T07:29:46;15.13;;;10.30;;
18210;SDS011;9231;48.852;9.882;2022-12-07T07:32:13;15.20;;;9.83;;
18210;SDS011;9231;48.852;9.882;2022-12-07T07:34:39;16.70;;;10.87;;
18210;SDS011;9231;48.852;9.882;2022-12-07T07:37:07;17.27;;;10.40;;
18210;SDS011;9231;48.852;9.882;2022-12-07T07:39:36;16.30;;;11.20;;
18210;SDS011;9231;48.852;9.882;2022-12-07T07:42:02;16.57;;;10.47;;
18210;SDS011;9231;48.852;9.882;2022-12-07T07:44:28;16.10;;;11.20;;
18210;SDS011;9231;48.852;9.882;2022-12-07T07:46:55;19.10;;;12.37;;
18210;SDS011;9231;48.852;9.882;2022-12-07T07:49:21;16.07;;;9.77;;
18210;SDS011;9231;48.852;9.882;2022-12-07T07:51:48;16.63;;;10.00;;
18210;SDS011;9231;48.852;9.882;2022-12-07T07:54:16;13.90;;;9.03;;
18210;SDS011;9231;48.852;9.882;2022-12-07T07:56:42;13.23;;;8.90;;
18210;SDS011;9231;48.852;9.882;2022-12-07T07:59:09;16.57;;;10.13;;
18210;SDS011;9231;48.852;9.882;2022-12-07T08:01:35;14.17;;;9.53;;
18210;SDS011;9231;48.852;9.882;2022-12-07T08:04:01;17.93;;;10.70;;
18210;SDS011;9231;48.852;9.882;2022-12-07T08:06:28;16.73;;;9.77;;
18210;SDS011;9231;48.852;9.882;2022-12-07T08:08:54;16.47;;;10.53;;
18210;SDS011;9231;48.852;9.882;2022-12-07T08:11:24;20.13;;;12.00;;
18210;SDS011;9231;48.852;9.882;2022-12-07T08:13:50;13.33;;;9.43;;
18210;SDS011;9231;48.852;9.882;2022-12-07T08:16:17;14.63;;;9.80;;
18210;SDS011;9231;48.852;9.882;2022-12-07T08:18:43;13.67;;;8.63;;
18210;SDS011;9231;48.852;9.882;2022-12-07T08:21:10;14.60;;;9.50;;
18210;SDS011;9231;48.852;9.882;2022-12-07T08:23:37;13.97;;;9.43;;
18210;SDS011;9231;48.852;9.882;2022-12-07T08:26:04;13.17;;;9.43;;
18210;SDS011;9231;48.852;9.882;2022-12-07T08:28:32;13.90;;;8.43;;
18210;SDS011;9231;48.852;9.882;2022-12-07T08:30:58;15.27;;;10.27;;
18210;SDS011;9231;48.852;9.882;2022-12-07T08:33:25;16.90;;;10.30;;
18210;SDS011;9231;48.852;9.882;2022-12-07T08:35:52;15.43;;;9.67;;
18210;SDS011;9231;48.852;9.882;2022-12-07T08:38:18;15.83;;;9.50;;
18210;SDS011;9231;48.852;9.882;2022-12-07T08:40:45;15.60;;;10.40;;
18210;SDS011;9231;48.852;9.882;2022-12-07T08:43:11;15.90;;;10.50;;
18210;SDS011;9231;48.852;9.882;2022-12-07T08:45:39;17.93;;;11.17;;
18210;SDS011;9231;48.852;9.882;2022-12-07T08:48:07;19.50;;;10.37;;
18210;SDS011;9231;48.852;9.882;2022-12-07T08:50:33;16.60;;;9.87;;
18210;SDS011;9231;48.852;9.882;2022-12-07T08:53:00;15.00;;;9.00;;
18210;SDS011;9231;48.852;9.882;2022-12-07T08:55:27;13.50;;;8.47;;
18210;SDS011;9231;48.852;9.882;2022-12-07T08:57:54;15.23;;;9.43;;
18210;SDS011;9231;48.852;9.882;2022-12-07T09:00:21;14.70;;;8.53;;
18210;SDS011;9231;48.852;9.882;2022-12-07T09:02:48;14.37;;;9.27;;
18210;SDS011;9231;48.852;9.882;2022-12-07T09:05:15;12.03;;;7.77;;
18210;SDS011;9231;48.852;9.882;2022-12-07T09:07:41;12.03;;;7.90;;
18210;SDS011;9231;48.852;9.882;2022-12-07T09:10:09;12.50;;;8.17;;
18210;SDS011;9231;48.852;9.882;2022-12-07T09:12:36;13.97;;;8.73;;
18210;SDS011;9231;48.852;9.882;2022-12-07T09:15:03;11.67;;;8.43;;
18210;SDS011;9231;48.852;9.882;2022-12-07T09:17:31;15.90;;;9.43;;
18210;SDS011;9231;48.852;9.882;2022-12-07T09:19:59;12.90;;;8.53;;
18210;SDS011;9231;48.852;9.882;2022-12-07T09:22:28;9.77;;;7.00;;
18210;SDS011;9231;48.852;9.882;2022-12-07T09:24:54;10.90;;;7.23;;
18210;SDS011;9231;48.852;9.882;2022-12-07T09:27:20;11.93;;;7.63;;
18210;SDS011;9231;48.852;9.882;2022-12-07T09:29:47;10.97;;;7.37;;
18210;SDS011;9231;48.852;9.882;2022-12-07T09:32:13;10.27;;;7.03;;
18210;SDS011;9231;48.852;9.882;2022-12-07T09:34:40;8.47;;;5.70;;
18210;SDS011;9231;48.852;9.882;2022-12-07T09:37:07;10.90;;;7.47;;
18210;SDS011;9231;48.852;9.882;2022-12-07T09:39:34;9.67;;;6.50;;
18210;SDS011;9231;48.852;9.882;2022-12-07T09:42:02;11.77;;;6.97;;
18210;SDS011;9231;48.852;9.882;2022-12-07T09:44:29;10.13;;;7.13;;
18210;SDS011;9231;48.852;9.882;2022-12-07T09:46:56;13.40;;;7.40;;
18210;SDS011;9231;48.852;9.882;2022-12-07T09:49:23;11.10;;;7.57;;
18210;SDS011;9231;48.852;9.882;2022-12-07T09:51:59;11.63;;;7.70;;
18210;SDS011;9231;48.852;9.882;2022-12-07T09:54:27;10.17;;;7.50;;
18210;SDS011;9231;48.852;9.882;2022-12-07T09:56:54;10.13;;;7.10;;
18210;SDS011;9231;48.852;9.882;2022-12-07T09:59:21;12.83;;;7.83;;
18210;SDS011;9231;48.852;9.882;2022-12-07T10:01:48;10.13;;;6.40;;
18210;SDS011;9231;48.852;9.882;2022-12-07T10:04:15;10.87;;;7.23;;
18210;SDS011;9231;48.852;9.882;2022-12-07T10:06:42;12.60;;;7.70;;
18210;SDS011;9231;48.852;9.882;2022-12-07T10:09:10;13.77;;;8.63;;
18210;SDS011;9231;48.852;9.882;2022-12-07T10:14:20;10.73;;;7.10;;
18210;SDS011;9231;48.852;9.882;2022-12-07T10:16:46;8.87;;;6.77;;
18210;SDS011;9231;48.852;9.882;2022-12-07T10:19:23;10.77;;;7.60;;
18210;SDS011;9231;48.852;9.882;2022-12-07T10:22:09;11.97;;;6.53;;
18210;SDS011;9231;48.852;9.882;2022-12-07T10:24:36;8.40;;;5.97;;
18210;SDS011;9231;48.852;9.882;2022-12-07T10:27:04;10.50;;;6.80;;
18210;SDS011;9231;48.852;9.882;2022-12-07T10:29:33;8.13;;;5.23;;
18210;SDS011;9231;48.852;9.882;2022-12-07T10:32:01;9.37;;;7.10;;
18210;SDS011;9231;48.852;9.882;2022-12-07T10:34:28;7.80;;;5.27;;
18210;SDS011;9231;48.852;9.882;2022-12-07T10:37:06;7.63;;;4.20;;
18210;SDS011;9231;48.852;9.882;2022-12-07T10:39:39;8.63;;;4.63;;
18210;SDS011;9231;48.852;9.882;2022-12-07T10:42:09;8.03;;;4.67;;
18210;SDS011;9231;48.852;9.882;2022-12-07T10:44:42;9.87;;;5.13;;
18210;SDS011;9231;48.852;9.882;2022-12-07T10:47:13;5.83;;;4.90;;
18210;SDS011;9231;48.852;9.882;2022-12-07T10:52:26;8.10;;;5.13;;
18210;SDS011;9231;48.852;9.882;2022-12-07T10:54:58;11.57;;;5.67;;
18210;SDS011;9231;48.852;9.882;2022-12-07T10:57:32;9.20;;;5.97;;
18210;SDS011;9231;48.852;9.882;2022-12-07T11:00:18;4.87;;;3.40;;
18210;SDS011;9231;48.852;9.882;2022-12-07T11:02:52;10.73;;;5.57;;
18210;SDS011;9231;48.852;9.882;2022-12-07T11:05:22;9.67;;;5.00;;
18210;SDS011;9231;48.852;9.882;2022-12-07T11:07:56;8.33;;;5.57;;
18210;SDS011;9231;48.852;9.882;2022-12-07T11:10:26;7.60;;;5.03;;
18210;SDS011;9231;48.852;9.882;2022-12-07T11:12:59;7.13;;;5.00;;
18210;SDS011;9231;48.852;9.882;2022-12-07T11:15:31;9.67;;;6.33;;
18210;SDS011;9231;48.852;9.882;2022-12-07T11:18:01;9.97;;;6.63;;
18210;SDS011;9231;48.852;9.882;2022-12-07T11:20:34;11.27;;;5.77;;
18210;SDS011;9231;48.852;9.882;2022-12-07T11:23:03;7.60;;;4.93;;
18210;SDS011;9231;48.852;9.882;2022-12-07T11:25:32;7.57;;;5.37;;
18210;SDS011;9231;48.852;9.882;2022-12-07T11:28:04;9.83;;;6.37;;
18210;SDS011;9231;48.852;9.882;2022-12-07T11:30:37;7.77;;;5.03;;
18210;SDS011;9231;48.852;9.882;2022-12-07T11:33:08;6.17;;;4.50;;
18210;SDS011;9231;48.852;9.882;2022-12-07T11:35:38;10.17;;;5.17;;
18210;SDS011;9231;48.852;9.882;2022-12-07T11:38:10;8.87;;;5.37;;
18210;SDS011;9231;48.852;9.882;2022-12-07T11:40:37;5.43;;;3.63;;
18210;SDS011;9231;48.852;9.882;2022-12-07T11:43:05;6.67;;;4.13;;
18210;SDS011;9231;48.852;9.882;2022-12-07T11:45:33;5.93;;;3.93;;
18210;SDS011;9231;48.852;9.882;2022-12-07T11:48:01;6.03;;;4.53;;
18210;SDS011;9231;48.852;9.882;2022-12-07T11:50:31;6.67;;;4.30;;
18210;SDS011;9231;48.852;9.882;2022-12-07T11:53:00;6.87;;;4.70;;
18210;SDS011;9231;48.852;9.882;2022-12-07T11:55:30;4.97;;;3.90;;
18210;SDS011;9231;48.852;9.882;2022-12-07T11:58:00;8.73;;;4.10;;
18210;SDS011;9231;48.852;9.882;2022-12-07T12:00:29;7.63;;;4.10;;
18210;SDS011;9231;48.852;9.882;2022-12-07T12:02:57;9.60;;;5.67;;
18210;SDS011;9231;48.852;9.882;2022-12-07T12:05:26;11.20;;;6.47;;
18210;SDS011;9231;48.852;9.882;2022-12-07T12:07:54;6.17;;;4.10;;
18210;SDS011;9231;48.852;9.882;2022-12-07T12:10:24;10.10;;;6.00;;
18210;SDS011;9231;48.852;9.882;2022-12-07T12:12:57;8.03;;;4.80;;
18210;SDS011;9231;48.852;9.882;2022-12-07T12:15:30;8.67;;;4.53;;
18210;SDS011;9231;48.852;9.882;2022-12-07T12:18:14;5.90;;;4.17;;
18210;SDS011;9231;48.852;9.882;2022-12-07T12:20:48;9.60;;;4.20;;
18210;SDS011;9231;48.852;9.882;2022-12-07T12:23:16;9.03;;;5.27;;
18210;SDS011;9231;48.852;9.882;2022-12-07T12:25:45;5.47;;;3.50;;
18210;SDS011;9231;48.852;9.882;2022-12-07T12:28:20;6.63;;;4.53;;
18210;SDS011;9231;48.852;9.882;2022-12-07T12:31:03;7.60;;;4.70;;
18210;SDS011;9231;48.852;9.882;2022-12-07T12:33:30;11.57;;;5.87;;
18210;SDS011;9231;48.852;9.882;2022-12-07T12:38:49;6.77;;;4.60;;
18210;SDS011;9231;48.852;9.882;2022-12-07T12:43:57;11.00;;;6.17;;
18210;SDS011;9231;48.852;9.882;2022-12-07T12:55:00;8.13;;;4.47;;
18210;SDS011;9231;48.852;9.882;2022-12-07T12:57:28;7.93;;;4.90;;
18210;SDS011;9231;48.852;9.882;2022-12-07T12:59:56;6.53;;;4.13;;
18210;SDS011;9231;48.852;9.882;2022-12-07T13:02:23;8.60;;;4.90;;
18210;SDS011;9231;48.852;9.882;2022-12-07T13:04:53;7.93;;;4.93;;
18210;SDS011;9231;48.852;9.882;2022-12-07T13:10:08;5.87;;;3.73;;
18210;SDS011;9231;48.852;9.882;2022-12-07T13:12:54;5.20;;;3.30;;
18210;SDS011;9231;48.852;9.882;2022-12-07T13:15:31;6.47;;;4.43;;
18210;SDS011;9231;48.852;9.882;2022-12-07T13:17:59;5.97;;;3.70;;
18210;SDS011;9231;48.852;9.882;2022-12-07T13:23:10;6.20;;;3.37;;
18210;SDS011;9231;48.852;9.882;2022-12-07T13:25:43;6.10;;;3.90;;
18210;SDS011;9231;48.852;9.882;2022-12-07T13:28:14;8.07;;;4.20;;
18210;SDS011;9231;48.852;9.882;2022-12-07T13:30:43;5.50;;;3.73;;
18210;SDS011;9231;48.852;9.882;2022-12-07T13:33:11;6.27;;;4.23;;
18210;SDS011;9231;48.852;9.882;2022-12-07T13:35:38;5.40;;;3.87;;
18210;SDS011;9231;48.852;9.882;2022-12-07T13:38:05;6.17;;;3.47;;
18210;SDS011;9231;48.852;9.882;2022-12-07T13:40:32;7.50;;;4.20;;
18210;SDS011;9231;48.852;9.882;2022-12-07T13:43:01;5.27;;;3.97;;
18210;SDS011;9231;48.852;9.882;2022-12-07T13:45:28;5.10;;;3.97;;
18210;SDS011;9231;48.852;9.882;2022-12-07T13:48:09;6.70;;;4.00;;
18210;SDS011;9231;48.852;9.882;2022-12-07T13:50:38;6.40;;;3.70;;
18210;SDS011;9231;48.852;9.882;2022-12-07T13:53:07;7.47;;;4.17;;
18210;SDS011;9231;48.852;9.882;2022-12-07T13:55:37;6.27;;;3.90;;
18210;SDS011;9231;48.852;9.882;2022-12-07T13:58:11;6.23;;;3.83;;
18210;SDS011;9231;48.852;9.882;2022-12-07T14:00:39;5.10;;;3.60;;
18210;SDS011;9231;48.852;9.882;2022-12-07T14:03:20;5.43;;;3.23;;
18210;SDS011;9231;48.852;9.882;2022-12-07T14:06:02;3.33;;;2.50;;
18210;SDS011;9231;48.852;9.882;2022-12-07T14:08:29;4.93;;;3.63;;
18210;SDS011;9231;48.852;9.882;2022-12-07T14:10:56;5.37;;;4.00;;
18210;SDS011;9231;48.852;9.882;2022-12-07T14:13:27;5.97;;;3.50;;
18210;SDS011;9231;48.852;9.882;2022-12-07T14:15:54;7.30;;;3.87;;
18210;SDS011;9231;48.852;9.882;2022-12-07T14:18:25;5.30;;;3.77;;
18210;SDS011;9231;48.852;9.882;2022-12-07T14:21:01;5.30;;;4.27;;
18210;SDS011;9231;48.852;9.882;2022-12-07T14:23:28;6.60;;;3.77;;
18210;SDS011;9231;48.852;9.882;2022-12-07T14:26:04;5.13;;;3.90;;
18210;SDS011;9231;48.852;9.882;2022-12-07T14:28:33;7.00;;;4.13;;
18210;SDS011;9231;48.852;9.882;2022-12-07T14:30:59;6.13;;;4.07;;
18210;SDS011;9231;48.852;9.882;2022-12-07T14:33:26;7.37;;;4.73;;
18210;SDS011;9231;48.852;9.882;2022-12-07T14:35:53;7.50;;;4.70;;
18210;SDS011;9231;48.852;9.882;2022-12-07T14:38:20;9.30;;;5.00;;
18210;SDS011;9231;48.852;9.882;2022-12-07T14:40:47;13.13;;;6.67;;
18210;SDS011;9231;48.852;9.882;2022-12-07T14:43:15;6.10;;;3.43;;
18210;SDS011;9231;48.852;9.882;2022-12-07T14:45:43;7.87;;;5.10;;
18210;SDS011;9231;48.852;9.882;2022-12-07T14:48:09;5.87;;;4.23;;
18210;SDS011;9231;48.852;9.882;2022-12-07T14:50:37;7.13;;;4.60;;
18210;SDS011;9231;48.852;9.882;2022-12-07T14:53:06;8.70;;;4.57;;
18210;SDS011;9231;48.852;9.882;2022-12-07T14:55:36;6.87;;;5.27;;
18210;SDS011;9231;48.852;9.882;2022-12-07T14:58:02;6.20;;;4.87;;
18210;SDS011;9231;48.852;9.882;2022-12-07T15:00:29;4.43;;;3.33;;
18210;SDS011;9231;48.852;9.882;2022-12-07T15:02:57;5.43;;;4.13;;
18210;SDS011;9231;48.852;9.882;2022-12-07T15:05:23;7.53;;;3.97;;
18210;SDS011;9231;48.852;9.882;2022-12-07T15:07:50;7.13;;;4.40;;
18210;SDS011;9231;48.852;9.882;2022-12-07T15:10:18;4.47;;;4.03;;
18210;SDS011;9231;48.852;9.882;2022-12-07T15:12:45;6.33;;;4.80;;
18210;SDS011;9231;48.852;9.882;2022-12-07T15:15:11;6.63;;;5.40;;
18210;SDS011;9231;48.852;9.882;2022-12-07T15:17:38;7.00;;;4.57;;
18210;SDS011;9231;48.852;9.882;2022-12-07T15:20:07;7.80;;;5.13;;
18210;SDS011;9231;48.852;9.882;2022-12-07T15:22:34;9.17;;;5.57;;
18210;SDS011;9231;48.852;9.882;2022-12-07T15:25:02;7.40;;;5.10;;